Time;durP1;ratioP1;P1;durP2;ratioP2;P2;SDS_P1;SDS_P2;PMS_P1;PMS_P2;Temp;Humidity;BMP_temperature;BMP_pressure;BME280_temperature;BME280_humidity;BME280_pressure;Samples;Min_cycle;Max_cycle;Signal;HPM_P1;HPM_P2
2022/10/17 00:01:07;;;;;;;5.50;2.47;;;11.60;99.90;;;;;;5054407;28;20194;-73
2022/10/17 00:03:33;;;;;;;2.43;2.17;;;11.60;99.90;;;;;;5068834;28;20194;-73
2022/10/17 00:06:05;;;;;;;12.93;2.50;;;11.60;99.90;;;;;;5053060;28;20423;-74
2022/10/17 00:08:30;;;;;;;8.93;2.33;;;11.50;99.90;;;;;;5054187;28;20394;-73
2022/10/17 00:10:59;;;;;;;6.33;2.47;;;11.50;99.90;;;;;;5053510;28;20394;-72
2022/10/17 00:13:25;;;;;;;11.03;3.00;;;11.40;99.90;;;;;;5054068;28;20564;-74
2022/10/17 00:15:50;;;;;;;7.67;3.30;;;11.40;99.90;;;;;;5053295;28;20402;-73
2022/10/17 00:18:16;;;;;;;6.50;2.67;;;11.40;99.90;;;;;;5056387;28;20395;-73
2022/10/17 00:20:42;;;;;;;7.00;2.30;;;11.40;99.90;;;;;;5072538;28;20201;-72
2022/10/17 00:23:07;;;;;;;4.87;2.33;;;11.40;99.90;;;;;;5074028;28;20154;-71
2022/10/17 00:25:33;;;;;;;7.83;2.80;;;11.30;99.90;;;;;;5072868;28;20186;-73
2022/10/17 00:27:59;;;;;;;6.03;2.10;;;11.30;99.90;;;;;;5073832;28;20166;-73
2022/10/17 00:30:24;;;;;;;11.17;3.10;;;11.30;99.90;;;;;;5073879;28;20170;-72
2022/10/17 00:32:50;;;;;;;12.10;3.27;;;11.30;99.90;;;;;;5063739;28;20178;-73
2022/10/17 00:35:16;;;;;;;9.60;3.07;;;11.30;99.90;;;;;;5052711;28;20289;-72
2022/10/17 00:37:41;;;;;;;9.60;3.70;;;11.30;99.90;;;;;;5053312;28;20159;-73
2022/10/17 00:40:08;;;;;;;8.40;2.20;;;11.20;99.90;;;;;;5053603;28;20242;-73
2022/10/17 00:42:34;;;;;;;5.00;2.23;;;11.10;99.90;;;;;;5053606;28;20166;-73
2022/10/17 00:45:11;;;;;;;13.63;3.33;;;11.10;99.90;;;;;;5052485;28;20430;-74
2022/10/17 00:47:37;;;;;;;4.87;3.20;;;11.10;99.90;;;;;;5073554;28;20367;-73
2022/10/17 00:50:05;;;;;;;12.00;2.70;;;11.10;99.90;;;;;;5073473;28;20931;-72
2022/10/17 00:52:31;;;;;;;11.60;3.00;;;11.10;99.90;;;;;;5073445;28;20181;-73
2022/10/17 00:55:06;;;;;;;10.13;2.90;;;11.10;99.90;;;;;;5072080;28;20430;-72
2022/10/17 00:57:31;;;;;;;10.10;3.00;;;11.10;99.90;;;;;;5073388;28;20404;-72
2022/10/17 00:59:59;;;;;;;4.80;2.27;;;11.10;99.90;;;;;;5069716;28;20509;-73
2022/10/17 01:02:25;;;;;;;3.73;2.10;;;11.10;99.90;;;;;;5053071;28;20531;-73
2022/10/17 01:04:54;;;;;;;4.53;2.40;;;11.10;99.90;;;;;;5051983;28;20426;-73
2022/10/17 01:07:20;;;;;;;6.33;2.40;;;11.10;99.90;;;;;;5053471;28;20372;-72
2022/10/17 01:09:46;;;;;;;10.63;2.70;;;11.10;99.90;;;;;;5053452;28;20401;-72
2022/10/17 01:12:14;;;;;;;11.90;3.07;;;11.20;99.90;;;;;;5052773;28;20377;-73
2022/10/17 01:15:15;;;;;;;14.60;3.90;;;11.30;99.90;;;;;;5052218;28;20424;-75
2022/10/17 01:18:14;;;;;;;9.33;2.63;;;11.30;99.90;;;;;;5058271;28;20425;-74
2022/10/17 01:20:58;;;;;;;8.63;2.60;;;11.50;99.90;;;;;;5073204;28;20379;-72
2022/10/17 01:23:36;;;;;;;5.27;2.40;;;11.60;99.90;;;;;;5076094;28;20371;-73
2022/10/17 01:26:33;;;;;;;6.13;2.93;;;11.60;99.90;;;;;;5077082;28;20444;-73
2022/10/17 01:29:11;;;;;;;8.97;2.23;;;11.70;99.90;;;;;;5077310;28;20407;-72
2022/10/17 01:32:04;;;;;;;14.10;3.33;;;11.70;99.90;;;;;;5075673;28;20378;-73
2022/10/17 01:34:40;;;;;;;11.70;2.27;;;11.70;99.90;;;;;;5065048;28;20537;-72
2022/10/17 01:37:15;;;;;;;7.70;2.73;;;11.80;99.90;;;;;;5077039;28;20758;-71
2022/10/17 01:39:44;;;;;;;9.40;2.70;;;11.80;99.90;;;;;;5077082;28;20824;-73
2022/10/17 01:42:17;;;;;;;10.90;1.90;;;11.80;99.90;;;;;;5077079;28;20466;-71
2022/10/17 01:44:58;;;;;;;4.97;2.57;;;11.90;99.90;;;;;;5074625;28;20412;-71
2022/10/17 01:47:28;;;;;;;7.77;2.70;;;11.90;99.90;;;;;;5066341;28;20404;-71
2022/10/17 01:49:57;;;;;;;7.80;2.50;;;12.00;99.90;;;;;;5055980;28;20511;-70
2022/10/17 01:52:37;;;;;;;4.67;2.50;;;12.00;99.90;;;;;;5056660;28;20908;-71
2022/10/17 01:55:14;;;;;;;4.57;2.73;;;12.00;99.90;;;;;;5055601;28;20505;-70
2022/10/17 01:57:54;;;;;;;4.80;2.70;;;12.00;99.90;;;;;;5056783;28;20383;-71
2022/10/17 02:00:25;;;;;;;9.87;2.83;;;12.00;99.90;;;;;;5063014;28;20440;-70
2022/10/17 02:03:00;;;;;;;3.93;2.40;;;12.00;99.90;;;;;;5076256;28;20399;-71
2022/10/17 02:05:46;;;;;;;8.67;3.10;;;12.00;99.90;;;;;;5075534;28;20398;-70
2022/10/17 02:08:13;;;;;;;2.73;2.40;;;12.00;99.90;;;;;;5075417;28;20452;-69
2022/10/17 02:10:47;;;;;;;5.23;2.70;;;12.10;99.90;;;;;;5075909;28;20385;-72
2022/10/17 02:13:31;;;;;;;9.80;3.40;;;12.10;99.90;;;;;;5076365;28;20884;-73
2022/10/17 02:16:28;;;;;;;4.83;2.80;;;12.10;99.90;;;;;;5070335;28;20419;-70
2022/10/17 02:19:23;;;;;;;8.30;2.90;;;12.10;99.90;;;;;;5056270;28;20414;-72
2022/10/17 02:22:15;;;;;;;5.70;2.50;;;12.20;99.90;;;;;;5043081;28;20761;-69
2022/10/17 02:25:22;;;;;;;6.20;2.20;;;12.20;99.90;;;;;;5055247;28;20391;-72
2022/10/17 02:28:08;;;;;;;11.13;2.97;;;12.20;99.90;;;;;;5057958;28;20891;-70
2022/10/17 02:30:52;;;;;;;8.10;3.30;;;12.20;99.90;;;;;;5075699;28;20491;-71
2022/10/17 02:33:23;;;;;;;5.07;2.63;;;12.20;99.90;;;;;;5075667;28;20470;-74
2022/10/17 02:35:53;;;;;;;13.97;3.10;;;12.20;99.90;;;;;;5073775;28;20793;-70
2022/10/17 02:38:20;;;;;;;7.80;2.50;;;12.30;99.90;;;;;;5074701;28;20415;-69
2022/10/17 02:40:48;;;;;;;10.93;3.53;;;12.30;99.90;;;;;;5075980;28;20383;-71
2022/10/17 02:43:14;;;;;;;5.50;2.63;;;12.30;99.90;;;;;;5070446;28;20408;-71
2022/10/17 02:45:40;;;;;;;7.87;2.27;;;12.30;99.90;;;;;;5054856;28;20416;-70
2022/10/17 02:48:21;;;;;;;3.27;2.17;;;12.40;99.90;;;;;;5055412;28;20171;-71
2022/10/17 02:50:55;;;;;;;11.27;3.07;;;12.40;99.90;;;;;;5054378;28;20392;-70
2022/10/17 02:53:46;;;;;;;3.17;2.40;;;12.40;99.90;;;;;;5055276;28;20397;-70
2022/10/17 02:56:21;;;;;;;4.60;2.90;;;12.50;99.90;;;;;;5040773;28;20508;-71
2022/10/17 02:58:52;;;;;;;5.80;2.33;;;12.50;99.90;;;;;;5075294;28;20499;-70
2022/10/17 03:01:19;;;;;;;7.87;3.10;;;12.50;99.90;;;;;;5074394;28;20417;-71
2022/10/17 03:03:44;;;;;;;2.93;2.27;;;12.50;99.90;;;;;;5073190;28;20436;-71
2022/10/17 03:06:10;;;;;;;3.13;2.50;;;12.50;99.90;;;;;;5075433;28;20420;-70
2022/10/17 03:08:36;;;;;;;4.30;2.00;;;12.60;99.90;;;;;;5075024;28;20173;-70
2022/10/17 03:11:01;;;;;;;6.37;2.43;;;12.60;99.90;;;;;;5070093;28;20183;-71
2022/10/17 03:13:28;;;;;;;4.80;2.27;;;12.60;99.90;;;;;;5054911;28;20194;-71
2022/10/17 03:15:55;;;;;;;6.50;2.90;;;12.70;99.90;;;;;;5054530;28;20187;-70
2022/10/17 03:18:21;;;;;;;5.97;2.00;;;12.70;99.90;;;;;;5055257;28;20390;-70
2022/10/17 03:20:47;;;;;;;7.43;2.30;;;12.70;99.90;;;;;;5055068;28;20733;-71
2022/10/17 03:23:12;;;;;;;5.30;3.00;;;12.60;99.90;;;;;;5070616;28;20170;-70
2022/10/17 03:25:38;;;;;;;5.40;2.50;;;12.70;99.90;;;;;;5052966;28;20202;-71
2022/10/17 03:28:04;;;;;;;4.23;1.90;;;12.70;99.90;;;;;;5054994;28;20181;-72
2022/10/17 03:30:30;;;;;;;4.40;2.40;;;12.60;99.90;;;;;;5055301;28;20632;-70
2022/10/17 03:32:59;;;;;;;3.83;2.00;;;12.60;99.90;;;;;;5054992;28;20393;-70
2022/10/17 03:35:26;;;;;;;10.57;2.93;;;12.60;99.90;;;;;;5053823;28;20780;-72
2022/10/17 03:37:53;;;;;;;3.20;2.37;;;12.60;99.90;;;;;;5054768;28;20394;-70
2022/10/17 03:40:19;;;;;;;2.37;2.17;;;12.60;99.90;;;;;;5055200;28;20400;-71
2022/10/17 03:42:45;;;;;;;2.00;1.90;;;12.70;99.90;;;;;;5054391;28;20402;-69
2022/10/17 03:45:10;;;;;;;9.67;3.40;;;12.70;99.90;;;;;;5051997;28;20652;-70
2022/10/17 03:47:36;;;;;;;10.63;2.73;;;12.60;99.90;;;;;;5052674;28;20171;-71
2022/10/17 03:50:02;;;;;;;8.40;2.90;;;12.70;99.90;;;;;;5054530;28;20523;-70
2022/10/17 03:52:28;;;;;;;10.70;3.50;;;12.70;99.90;;;;;;5054097;28;20183;-70
2022/10/17 03:54:53;;;;;;;6.97;2.43;;;12.70;99.90;;;;;;5053463;28;20523;-71
2022/10/17 03:57:19;;;;;;;2.87;2.13;;;12.70;99.90;;;;;;5054405;28;20171;-71
2022/10/17 03:59:45;;;;;;;6.57;2.50;;;12.80;99.90;;;;;;5052554;28;20577;-72
2022/10/17 04:02:10;;;;;;;2.30;1.80;;;12.80;99.90;;;;;;5054302;28;20175;-70
2022/10/17 04:04:36;;;;;;;9.87;2.63;;;12.80;99.90;;;;;;5053345;28;20250;-71
2022/10/17 04:07:02;;;;;;;11.83;2.57;;;12.80;99.90;;;;;;5059197;28;20202;-70
2022/10/17 04:09:27;;;;;;;2.47;2.27;;;12.70;99.90;;;;;;5074157;28;20162;-70
2022/10/17 04:11:53;;;;;;;6.07;2.60;;;12.80;99.90;;;;;;5073849;28;20405;-72
2022/10/17 04:14:19;;;;;;;6.57;2.57;;;12.80;99.90;;;;;;5073226;28;20206;-71
2022/10/17 04:16:45;;;;;;;2.30;2.10;;;12.80;99.90;;;;;;5074106;28;20213;-71
2022/10/17 04:19:12;;;;;;;2.80;2.20;;;12.80;99.90;;;;;;5073509;28;20404;-71
2022/10/17 04:21:38;;;;;;;7.60;2.80;;;12.80;99.90;;;;;;5056861;28;20524;-72
2022/10/17 04:24:04;;;;;;;11.23;2.50;;;12.80;99.90;;;;;;5053016;28;20953;-70
2022/10/17 04:26:30;;;;;;;2.80;2.33;;;12.70;99.90;;;;;;5052829;28;20467;-70
2022/10/17 04:28:56;;;;;;;6.83;2.33;;;12.70;99.90;;;;;;5053490;28;20406;-71
2022/10/17 04:31:21;;;;;;;7.10;2.50;;;12.70;99.90;;;;;;5053884;28;20249;-71
2022/10/17 04:33:48;;;;;;;3.20;2.13;;;12.70;99.90;;;;;;5052774;28;20230;-72
2022/10/17 04:36:16;;;;;;;3.20;2.10;;;12.70;99.90;;;;;;5053473;28;20233;-72
2022/10/17 04:38:42;;;;;;;5.20;4.27;;;12.70;99.90;;;;;;5053247;28;20389;-70
2022/10/17 04:41:11;;;;;;;15.73;8.10;;;12.70;99.90;;;;;;5053640;28;20919;-71
2022/10/17 04:43:38;;;;;;;7.90;6.57;;;12.80;99.90;;;;;;5068271;28;20529;-77
2022/10/17 04:46:10;;;;;;;4.23;3.77;;;12.80;99.90;;;;;;5053439;28;20425;-72
2022/10/17 04:48:36;;;;;;;4.77;4.30;;;12.80;99.90;;;;;;5060743;28;20432;-71
2022/10/17 04:51:04;;;;;;;10.10;4.80;;;12.90;99.90;;;;;;5073587;28;20491;-70
2022/10/17 04:53:32;;;;;;;6.47;3.47;;;12.90;99.90;;;;;;5072694;28;20444;-70
2022/10/17 04:55:58;;;;;;;8.10;3.70;;;12.90;99.90;;;;;;5071388;28;20835;-70
2022/10/17 04:58:24;;;;;;;6.60;2.57;;;12.90;99.90;;;;;;5072899;28;20401;-71
2022/10/17 05:00:50;;;;;;;5.17;2.87;;;12.90;99.90;;;;;;5052947;28;20535;-71
2022/10/17 05:03:16;;;;;;;3.50;2.77;;;12.90;99.90;;;;;;5053242;28;20421;-71
2022/10/17 05:05:42;;;;;;;10.60;3.57;;;12.90;99.90;;;;;;5053677;28;20190;-70
2022/10/17 05:08:09;;;;;;;4.40;2.80;;;12.90;99.90;;;;;;5069326;28;20427;-70
2022/10/17 05:10:37;;;;;;;4.50;3.00;;;12.90;99.90;;;;;;5078404;28;20813;-69
2022/10/17 05:13:03;;;;;;;4.33;3.10;;;12.90;99.90;;;;;;5067250;28;20446;-69
2022/10/17 05:15:29;;;;;;;10.23;9.17;;;12.90;99.90;;;;;;5072134;28;20461;-69
2022/10/17 05:17:56;;;;;;;30.60;27.03;;;13.00;99.90;;;;;;5071128;28;20410;-70
2022/10/17 05:20:21;;;;;;;38.03;34.00;;;13.00;99.90;;;;;;5073203;28;20217;-72
2022/10/17 05:22:47;;;;;;;6.17;4.70;;;13.00;99.90;;;;;;5073294;28;20408;-70
2022/10/17 05:25:13;;;;;;;3.00;2.80;;;13.00;99.90;;;;;;5072235;28;20259;-71
2022/10/17 05:27:39;;;;;;;3.23;2.30;;;13.00;99.90;;;;;;5073262;28;20245;-70
2022/10/17 05:30:05;;;;;;;7.13;3.90;;;13.00;99.90;;;;;;5064642;28;20643;-70
2022/10/17 05:32:30;;;;;;;6.37;3.10;;;13.00;99.90;;;;;;5067860;28;20630;-70
2022/10/17 05:34:56;;;;;;;5.60;2.63;;;13.00;99.90;;;;;;5061055;28;20466;-71
2022/10/17 05:37:22;;;;;;;6.10;2.43;;;13.00;99.90;;;;;;5072202;28;20216;-71
2022/10/17 05:39:47;;;;;;;722.47;342.37;;;13.00;99.90;;;;;;5071940;28;20646;-71
2022/10/17 05:42:13;;;;;;;87.80;35.40;;;12.90;99.90;;;;;;5071633;28;20186;-72
2022/10/17 05:44:40;;;;;;;14.57;8.07;;;12.90;99.90;;;;;;5071927;28;20174;-71
2022/10/17 05:47:10;;;;;;;7.70;3.80;;;13.00;99.90;;;;;;5072961;28;20558;-70
2022/10/17 05:49:35;;;;;;;5.70;2.90;;;13.00;99.90;;;;;;5072562;28;20486;-71
2022/10/17 05:52:01;;;;;;;2.60;2.23;;;13.00;99.90;;;;;;5070808;28;20828;-71
2022/10/17 05:54:27;;;;;;;4.50;2.87;;;13.00;99.90;;;;;;5071821;28;20257;-72
2022/10/17 05:56:54;;;;;;;4.47;2.87;;;13.00;99.90;;;;;;5071660;28;20190;-70
2022/10/17 05:59:20;;;;;;;12.10;3.00;;;13.00;99.90;;;;;;5071845;28;20166;-70
2022/10/17 06:01:45;;;;;;;3.00;2.70;;;13.00;99.90;;;;;;5071654;28;20956;-70
2022/10/17 06:04:11;;;;;;;4.43;2.80;;;13.00;99.90;;;;;;5071862;28;20890;-71
2022/10/17 06:06:37;;;;;;;7.13;2.80;;;13.00;99.90;;;;;;5071435;28;20190;-72
2022/10/17 06:09:03;;;;;;;2.40;2.20;;;13.00;99.90;;;;;;5072974;28;20246;-71
2022/10/17 06:11:29;;;;;;;4.10;2.87;;;13.00;99.90;;;;;;5076188;28;20854;-71
2022/10/17 06:13:55;;;;;;;5.93;2.97;;;13.00;99.90;;;;;;5074141;28;20343;-71
2022/10/17 06:16:21;;;;;;;4.53;4.13;;;13.10;99.90;;;;;;5076219;28;20194;-71
2022/10/17 06:18:47;;;;;;;3.17;2.97;;;13.10;99.90;;;;;;5076137;28;20182;-71
2022/10/17 06:21:16;;;;;;;4.27;2.50;;;13.10;99.90;;;;;;5075022;28;20435;-71
2022/10/17 06:23:41;;;;;;;3.20;3.00;;;13.10;99.90;;;;;;5075442;28;20379;-71
2022/10/17 06:26:08;;;;;;;3.70;2.07;;;13.10;99.90;;;;;;5075756;28;20398;-71
2022/10/17 06:28:34;;;;;;;4.93;2.53;;;13.10;99.90;;;;;;5076034;28;20217;-72
2022/10/17 06:31:07;;;;;;;3.43;2.50;;;13.10;99.90;;;;;;5076073;28;20739;-71
2022/10/17 06:33:33;;;;;;;3.50;2.50;;;13.10;99.90;;;;;;5075891;28;20460;-72
2022/10/17 06:35:59;;;;;;;3.70;3.03;;;13.10;99.90;;;;;;5061637;28;20448;-70
2022/10/17 06:38:24;;;;;;;3.23;2.93;;;13.20;99.90;;;;;;5055652;28;20197;-71
2022/10/17 06:40:50;;;;;;;7.33;2.97;;;13.20;99.90;;;;;;5056115;28;20605;-73
2022/10/17 06:43:16;;;;;;;3.37;2.87;;;13.20;99.90;;;;;;5070684;28;20186;-71
2022/10/17 06:45:42;;;;;;;2.93;2.17;;;13.20;99.90;;;;;;5074899;28;20420;-70
2022/10/17 06:48:07;;;;;;;2.80;2.60;;;13.20;99.90;;;;;;5074594;28;20178;-71
2022/10/17 06:50:34;;;;;;;4.20;3.43;;;13.20;99.90;;;;;;5074723;28;20273;-70
2022/10/17 06:53:00;;;;;;;2.90;2.70;;;13.20;99.90;;;;;;5075586;28;20577;-71
2022/10/17 06:55:25;;;;;;;5.43;3.40;;;13.30;99.90;;;;;;5074644;28;20517;-70
2022/10/17 06:57:54;;;;;;;8.27;2.50;;;13.30;99.90;;;;;;5075813;28;20542;-70
2022/10/17 07:00:22;;;;;;;3.53;2.87;;;13.30;99.90;;;;;;5075127;28;20166;-70
2022/10/17 07:02:48;;;;;;;2.60;2.40;;;13.40;99.90;;;;;;5074395;28;20440;-71
2022/10/17 07:05:13;;;;;;;3.17;2.47;;;13.40;99.90;;;;;;5074339;28;20436;-71
2022/10/17 07:07:39;;;;;;;2.70;2.23;;;13.50;99.90;;;;;;5075775;28;20404;-71
2022/10/17 07:10:07;;;;;;;4.00;3.00;;;13.60;99.90;;;;;;5074063;28;20256;-71
2022/10/17 07:12:34;;;;;;;2.80;2.60;;;13.70;99.90;;;;;;5075331;28;20224;-70
2022/10/17 07:15:00;;;;;;;3.23;2.87;;;13.70;99.90;;;;;;5074096;28;20525;-73
2022/10/17 07:17:25;;;;;;;6.40;2.80;;;13.70;99.90;;;;;;5069620;28;20449;-71
2022/10/17 07:19:51;;;;;;;4.57;2.93;;;13.70;99.90;;;;;;5054733;28;20417;-70
2022/10/17 07:22:17;;;;;;;2.50;2.30;;;13.80;99.90;;;;;;5055353;28;20563;-71
2022/10/17 07:24:43;;;;;;;4.70;2.73;;;13.90;99.90;;;;;;5054336;28;20225;-70
2022/10/17 07:27:09;;;;;;;3.30;3.00;;;13.90;99.90;;;;;;5055056;28;20209;-72
2022/10/17 07:29:34;;;;;;;3.00;2.80;;;13.90;99.90;;;;;;5054992;28;20492;-71
2022/10/17 07:32:02;;;;;;;2.90;2.70;;;14.00;99.90;;;;;;5066078;28;20182;-72
2022/10/17 07:34:30;;;;;;;2.80;2.60;;;14.10;99.90;;;;;;5074098;28;20551;-70
2022/10/17 07:36:56;;;;;;;3.10;2.80;;;14.20;99.90;;;;;;5074878;28;20543;-72
2022/10/17 07:39:21;;;;;;;2.70;2.50;;;14.30;99.90;;;;;;5074217;28;20492;-72
2022/10/17 07:41:49;;;;;;;8.73;3.10;;;14.30;99.90;;;;;;5073512;28;20232;-71
2022/10/17 07:44:15;;;;;;;2.70;2.50;;;14.40;99.90;;;;;;5073887;28;20179;-71
2022/10/17 07:46:41;;;;;;;7.80;2.30;;;14.40;99.90;;;;;;5060694;28;20822;-72
2022/10/17 07:49:06;;;;;;;2.87;2.67;;;14.50;99.90;;;;;;5067609;28;20186;-72
2022/10/17 07:51:32;;;;;;;7.93;3.43;;;14.60;99.90;;;;;;5055671;28;20271;-72
2022/10/17 07:53:58;;;;;;;2.90;2.57;;;14.70;99.90;;;;;;5054083;28;20206;-70
2022/10/17 07:56:24;;;;;;;2.50;2.30;;;14.80;99.90;;;;;;5054114;28;20394;-72
2022/10/17 07:58:50;;;;;;;4.60;2.63;;;14.90;99.90;;;;;;5054386;28;20159;-70
2022/10/17 08:01:16;;;;;;;5.00;2.50;;;15.00;99.90;;;;;;5054455;28;20163;-74
2022/10/17 08:03:47;;;;;;;2.70;2.50;;;15.10;99.90;;;;;;5068646;28;20437;-71
2022/10/17 08:06:13;;;;;;;3.93;2.77;;;15.10;99.90;;;;;;5054347;28;20210;-73
2022/10/17 08:08:40;;;;;;;4.13;2.60;;;15.20;99.90;;;;;;5057861;28;20946;-73
2022/10/17 08:11:11;;;;;;;3.00;2.70;;;15.20;99.90;;;;;;5074198;28;20404;-72
2022/10/17 08:13:37;;;;;;;3.10;2.90;;;15.20;99.90;;;;;;5073093;28;20456;-78
2022/10/17 08:16:08;;;;;;;6.87;3.17;;;15.30;99.90;;;;;;5073855;28;20774;-73
2022/10/17 08:18:35;;;;;;;3.63;3.40;;;15.40;99.90;;;;;;5072881;28;20765;-70
2022/10/17 08:21:05;;;;;;;3.03;2.83;;;15.50;99.90;;;;;;5074080;28;20385;-73
2022/10/17 08:23:31;;;;;;;4.27;2.60;;;15.60;99.90;;;;;;5072570;28;20897;-73
2022/10/17 08:26:01;;;;;;;2.53;2.30;;;15.70;99.90;;;;;;5073185;28;20951;-72
2022/10/17 08:28:27;;;;;;;2.50;2.30;;;15.60;99.90;;;;;;5074170;28;20401;-71
2022/10/17 08:30:53;;;;;;;3.90;3.30;;;15.70;99.90;;;;;;5073675;28;20453;-71
2022/10/17 08:33:19;;;;;;;6.90;3.37;;;15.70;99.90;;;;;;5071506;28;20178;-77
2022/10/17 08:35:44;;;;;;;6.77;3.17;;;15.70;99.90;;;;;;5072862;28;20190;-71
2022/10/17 08:38:10;;;;;;;2.80;2.60;;;15.70;99.90;;;;;;5056798;28;20538;-70
2022/10/17 08:40:37;;;;;;;5.10;2.67;;;15.80;99.90;;;;;;5053760;28;20173;-72
2022/10/17 08:43:27;;;;;;;3.13;2.83;;;15.80;99.90;;;;;;5053720;28;20194;-71
2022/10/17 08:45:59;;;;;;;2.77;2.57;;;15.80;99.90;;;;;;5053113;28;20445;-72
2022/10/17 08:48:27;;;;;;;3.40;3.20;;;15.80;99.90;;;;;;5052455;28;20805;-70
2022/10/17 08:51:01;;;;;;;3.50;3.20;;;15.90;99.90;;;;;;5053200;28;20404;-71
2022/10/17 08:53:40;;;;;;;3.70;2.80;;;15.90;99.90;;;;;;5053198;28;20797;-71
2022/10/17 08:56:19;;;;;;;4.53;3.10;;;15.90;99.90;;;;;;5071300;28;20455;-71
2022/10/17 08:58:45;;;;;;;4.60;3.20;;;15.90;99.90;;;;;;5073033;28;20419;-70
2022/10/17 09:01:47;;;;;;;3.47;3.20;;;15.90;99.90;;;;;;5065443;28;20440;-72
2022/10/17 09:04:32;;;;;;;3.20;2.90;;;16.00;99.90;;;;;;5072337;28;20424;-72
2022/10/17 09:07:21;;;;;;;3.47;3.10;;;15.90;99.90;;;;;;5072352;28;20479;-70
2022/10/17 09:10:07;;;;;;;6.73;4.00;;;16.00;99.90;;;;;;5072009;28;20435;-72
2022/10/17 09:13:08;;;;;;;2.90;2.53;;;16.10;99.90;;;;;;5073030;28;20462;-70
2022/10/17 09:15:56;;;;;;;2.93;2.73;;;16.10;99.90;;;;;;5059593;28;20838;-70
2022/10/17 09:18:27;;;;;;;3.00;2.80;;;16.20;99.90;;;;;;5064515;28;20516;-70
2022/10/17 09:21:00;;;;;;;3.80;3.50;;;16.20;99.90;;;;;;5071093;28;20452;-70
2022/10/17 09:23:59;;;;;;;4.10;2.63;;;16.20;99.90;;;;;;5072951;28;20385;-73
2022/10/17 09:26:25;;;;;;;4.43;3.20;;;16.30;99.90;;;;;;5056233;28;20452;-72
2022/10/17 09:28:58;;;;;;;2.93;2.60;;;16.50;99.90;;;;;;5072881;28;20400;-72
2022/10/17 09:31:29;;;;;;;5.00;2.77;;;16.70;99.90;;;;;;5072318;28;20421;-70
2022/10/17 09:33:59;;;;;;;3.63;2.90;;;17.00;99.90;;;;;;5070905;28;20509;-71
2022/10/17 09:36:31;;;;;;;3.13;2.93;;;17.20;99.90;;;;;;5071502;28;20805;-71
2022/10/17 09:39:12;;;;;;;3.00;2.30;;;17.50;99.90;;;;;;5072017;28;20501;-70
2022/10/17 09:41:52;;;;;;;8.30;2.90;;;17.70;99.90;;;;;;5062742;28;20475;-71
2022/10/17 09:44:36;;;;;;;3.03;2.83;;;17.80;94.90;;;;;;5053287;28;20470;-72
2022/10/17 09:47:25;;;;;;;3.40;3.10;;;17.90;99.90;;;;;;5056419;28;20433;-70
2022/10/17 09:49:51;;;;;;;4.83;3.30;;;17.90;99.90;;;;;;5057518;28;20496;-72
2022/10/17 09:52:28;;;;;;;2.50;2.30;;;18.10;99.90;;;;;;5076914;28;20396;-71
2022/10/17 09:55:00;;;;;;;3.80;3.27;;;18.20;99.90;;;;;;5072832;28;20456;-71
2022/10/17 09:57:25;;;;;;;5.03;3.30;;;18.50;99.90;;;;;;5075614;28;20424;-70
2022/10/17 10:00:00;;;;;;;3.20;2.90;;;18.80;99.90;;;;;;5076368;28;20915;-71
2022/10/17 10:02:28;;;;;;;4.87;3.97;;;18.90;94.70;;;;;;5076515;28;20208;-73
2022/10/17 10:05:04;;;;;;;9.63;3.13;;;18.90;82.10;;;;;;5075324;28;20462;-71
2022/10/17 10:07:33;;;;;;;3.00;2.80;;;19.10;74.60;;;;;;5076176;28;20399;-69
2022/10/17 10:10:01;;;;;;;5.83;2.60;;;19.10;64.40;;;;;;5074950;28;20427;-71
2022/10/17 10:12:33;;;;;;;4.57;3.80;;;19.00;62.70;;;;;;5076251;28;20397;-72
2022/10/17 10:14:59;;;;;;;5.73;3.27;;;18.90;60.50;;;;;;5075042;28;20963;-72
2022/10/17 10:17:34;;;;;;;3.60;3.30;;;18.90;69.80;;;;;;5076320;28;20407;-73
2022/10/17 10:20:00;;;;;;;3.73;3.20;;;19.00;64.10;;;;;;5075909;28;20418;-72
2022/10/17 10:22:25;;;;;;;5.13;3.27;;;19.40;68.40;;;;;;5075917;28;20475;-71
2022/10/17 10:25:09;;;;;;;6.00;4.03;;;19.50;68.30;;;;;;5073768;28;20523;-73
2022/10/17 10:27:35;;;;;;;6.60;3.80;;;19.50;49.50;;;;;;5076009;28;20178;-69
2022/10/17 10:30:01;;;;;;;4.50;2.87;;;19.60;48.90;;;;;;5076081;28;20396;-70
2022/10/17 10:32:29;;;;;;;3.80;3.50;;;19.50;33.00;;;;;;5075888;28;20423;-72
2022/10/17 10:35:05;;;;;;;7.90;3.20;;;19.40;27.80;;;;;;5074916;28;20609;-72
2022/10/17 10:37:43;;;;;;;3.40;3.10;;;19.40;34.10;;;;;;5073710;28;20408;-73
2022/10/17 10:40:42;;;;;;;4.00;3.27;;;19.30;29.00;;;;;;5056136;28;20431;-70
2022/10/17 10:43:21;;;;;;;2.60;2.40;;;19.30;31.80;;;;;;5068218;28;20424;-70
2022/10/17 10:45:46;;;;;;;5.87;3.40;;;19.30;43.70;;;;;;5074968;28;20435;-72
2022/10/17 10:48:29;;;;;;;3.60;3.30;;;19.30;43.00;;;;;;5075481;28;20416;-73
2022/10/17 10:50:59;;;;;;;5.70;3.13;;;19.40;43.50;;;;;;5075677;28;20166;-70
2022/10/17 10:53:25;;;;;;;3.60;3.30;;;19.50;36.70;;;;;;5074329;28;20460;-74
2022/10/17 10:56:05;;;;;;;3.17;2.87;;;19.50;57.30;;;;;;5072974;28;20852;-70
2022/10/17 10:58:43;;;;;;;3.63;3.20;;;19.50;52.50;;;;;;5075448;28;20232;-72
2022/10/17 11:01:20;;;;;;;4.90;3.20;;;19.60;37.10;;;;;;5071093;28;20405;-75
2022/10/17 11:04:15;;;;;;;9.23;3.17;;;19.80;52.00;;;;;;5055015;28;20486;-70
2022/10/17 11:06:43;;;;;;;6.33;3.80;;;19.70;33.30;;;;;;5055095;28;20991;-72
2022/10/17 11:09:15;;;;;;;3.63;3.17;;;19.80;58.20;;;;;;5074893;28;20440;-72
2022/10/17 11:11:46;;;;;;;3.53;2.90;;;19.80;23.80;;;;;;5075358;28;20416;-70
2022/10/17 11:14:22;;;;;;;4.07;3.40;;;19.80;57.70;;;;;;5072599;28;20531;-73
2022/10/17 11:17:17;;;;;;;3.60;3.30;;;19.80;70.60;;;;;;5074964;28;20970;-73
2022/10/17 11:19:51;;;;;;;3.20;3.00;;;19.90;32.10;;;;;;5053765;28;20451;-74
2022/10/17 11:22:29;;;;;;;4.13;3.70;;;19.80;57.00;;;;;;5075121;28;20837;-72
2022/10/17 11:25:22;;;;;;;3.63;2.93;;;19.70;63.40;;;;;;5069234;28;20843;-73
2022/10/17 11:27:48;;;;;;;8.90;3.83;;;19.70;55.60;;;;;;5055002;28;20747;-72
2022/10/17 11:30:15;;;;;;;4.63;3.97;;;19.70;58.20;;;;;;5073520;28;20413;-71
2022/10/17 11:32:58;;;;;;;5.30;3.87;;;19.60;61.00;;;;;;5075025;28;20531;-70
2022/10/17 11:35:26;;;;;;;4.33;3.67;;;19.60;65.80;;;;;;5055876;28;21043;-71
2022/10/17 11:38:25;;;;;;;3.60;3.23;;;19.60;48.20;;;;;;5086208;28;20412;-72
2022/10/17 11:40:54;;;;;;;5.60;3.80;;;19.70;74.00;;;;;;5055263;28;20413;-73
2022/10/17 11:43:31;;;;;;;3.83;3.53;;;19.70;67.70;;;;;;5074168;28;20420;-71
2022/10/17 11:46:24;;;;;;;5.50;3.77;;;19.80;62.00;;;;;;5072943;28;20440;-73
2022/10/17 11:49:40;;;;;;;5.53;3.67;;;19.70;54.00;;;;;;5067237;28;20918;-71
2022/10/17 11:52:17;;;;;;;5.20;3.63;;;19.70;55.80;;;;;;5023884;28;20456;-70
2022/10/17 11:55:01;;;;;;;5.07;4.30;;;19.70;60.70;;;;;;5048325;28;20465;-71
2022/10/17 11:58:03;;;;;;;4.73;4.00;;;19.70;54.90;;;;;;5063658;28;20420;-71
2022/10/17 12:00:59;;;;;;;5.23;4.23;;;19.70;65.20;;;;;;5074490;28;20796;-72
2022/10/17 12:03:58;;;;;;;7.80;4.30;;;19.60;65.50;;;;;;5072598;28;20464;-72
2022/10/17 12:07:01;;;;;;;4.70;3.70;;;19.60;72.60;;;;;;5069071;28;20981;-72
2022/10/17 12:09:56;;;;;;;12.20;4.37;;;19.70;70.50;;;;;;5074140;28;20999;-73
2022/10/17 12:12:30;;;;;;;4.93;3.87;;;20.00;80.10;;;;;;5073915;28;20417;-71
2022/10/17 12:15:18;;;;;;;11.20;5.00;;;20.20;54.20;;;;;;5072597;28;20451;-72
2022/10/17 12:17:53;;;;;;;4.87;4.03;;;20.30;62.70;;;;;;5073617;28;20436;-73
2022/10/17 12:20:24;;;;;;;4.70;4.30;;;20.40;74.70;;;;;;5059712;28;20429;-72
2022/10/17 12:23:10;;;;;;;4.73;4.33;;;20.40;82.10;;;;;;5064683;28;20913;-72
2022/10/17 12:25:47;;;;;;;5.40;4.10;;;20.30;68.40;;;;;;5071726;28;20955;-74
2022/10/17 12:28:29;;;;;;;4.90;4.50;;;20.30;58.00;;;;;;5070754;28;20423;-71
2022/10/17 12:31:01;;;;;;;9.03;5.80;;;20.20;42.00;;;;;;5072042;28;20474;-71
2022/10/17 12:33:37;;;;;;;4.20;3.90;;;20.00;75.10;;;;;;5073431;28;20408;-74
2022/10/17 12:36:19;;;;;;;5.93;5.00;;;19.90;61.20;;;;;;5073471;28;20432;-74
2022/10/17 12:38:47;;;;;;;4.63;4.13;;;19.90;64.60;;;;;;5072471;28;20773;-73
2022/10/17 12:41:13;;;;;;;4.70;4.30;;;19.80;73.80;;;;;;5071880;28;20441;-73
2022/10/17 12:43:51;;;;;;;4.73;4.33;;;19.60;80.80;;;;;;5065511;28;20960;-75
2022/10/17 12:47:18;;;;;;;8.27;5.07;;;19.60;91.90;;;;;;5059967;28;20472;-73
2022/10/17 12:49:50;;;;;;;8.60;4.80;;;19.50;94.70;;;;;;5042504;28;20437;-73
2022/10/17 12:52:23;;;;;;;5.10;4.70;;;19.40;95.40;;;;;;5067411;28;20485;-74
2022/10/17 12:55:07;;;;;;;5.20;4.10;;;19.40;93.00;;;;;;5072111;28;20494;-72
2022/10/17 12:57:54;;;;;;;5.57;5.07;;;19.30;95.10;;;;;;5072195;28;20396;-73
2022/10/17 13:00:40;;;;;;;7.50;4.93;;;19.30;93.00;;;;;;5072121;28;20979;-74
2022/10/17 13:03:17;;;;;;;7.30;5.33;;;19.30;95.40;;;;;;5068753;28;20445;-73
2022/10/17 13:05:50;;;;;;;6.33;5.73;;;19.10;95.50;;;;;;5051858;28;20425;-74
2022/10/17 13:08:31;;;;;;;7.80;5.80;;;19.10;99.90;;;;;;5053468;28;20432;-74
2022/10/17 13:10:58;;;;;;;10.07;5.37;;;18.90;99.90;;;;;;5053324;28;20394;-69